MBPV

Providenciales International Airport

Providenciales, , Turks and Caicos Islands
MBPV 180930Z 1812/1912 12012KT 9999 SCT020
Issued Valid From Valid To
Jul-18 @ 09:30 UTC
(13 hours ago)
Jul-18 @ 12:00 UTC
(10 hours ago)
Jul-19 @ 12:00 UTC
(in 14 hours)
Jul-18 @ 12:00 to Jul-19 @ 12:00
MBPV 180930Z 1812/1912 12012KT 9999 SCT020
Wind Visibility Clouds
120° at 12 knots 10,000+ meters
  • Scattered at 2,000' AGL
MBPV 180930Z 1812/1912 12012KT 9999 SCT020
Issued Jul-18 @ 09:30 UTC
(13 hours ago)
Valid From Jul-18 @ 12:00 UTC
(10 hours ago)
Valid To Jul-19 @ 12:00 UTC
(in 14 hours)
Jul-18 @ 12:00 - Jul-19 @ 12:00
Wind Visibility
120° at 12 knots 10,000+ meters
Clouds
  • Scattered at 2,000' AGL